KLAS

Mc Carran International Airport

Las Vegas, Nevada, USA
METAR KLAS 141656Z 00000KT 10SM BKN250 08/M06 A3034 RMK AO2 SLP277 T00831061
Observed Flight Rules
Dec-14 @ 16:56 UTC (7 minutes ago) Visual Flight Rules
Visibility Clouds
10 miles
  • Broken at 25,000' AGL
Temperatures Readings
Current 8°C / 46°F
Dewpoint -6°C / 21°F
Humidity 37%
Altimeter 30.34" Hg
Pressure 1027.7 hPa
Elevation 636
METAR KLAS 141656Z 00000KT 10SM BKN250 08/M06 A3034 RMK AO2 SLP277 T00831061
Observed Flight Rules
Dec-14 @ 16:56 UTC
(7 minutes ago)
VFR
Clouds
  • Broken at 25,000' AGL
Temperature Dewpoint
8°C / 46°F -6°C / 21°F
Humidity Altimeter Pressure
37% 30.34" Hg 1027.7 hPa